Time;durP1;ratioP1;P1;durP2;ratioP2;P2;SDS_P1;SDS_P2;PMS_P1;PMS_P2;Temp;Humidity;BMP_temperature;BMP_pressure;BME280_temperature;BME280_humidity;BME280_pressure;Samples;Min_cycle;Max_cycle;Signal;HPM_P1;HPM_P2
2023/05/25 00:01:27;;;;;;;3.63;2.67;;;15.10;46.20;;;;;;5018474;28;20519;-84
2023/05/25 00:03:54;;;;;;;8.63;3.10;;;15.20;45.90;;;;;;5015642;28;21704;-82
2023/05/25 00:06:24;;;;;;;4.47;3.07;;;15.20;44.60;;;;;;5008391;28;20513;-84
2023/05/25 00:08:54;;;;;;;6.07;3.40;;;14.80;45.20;;;;;;5021889;28;20474;-85
2023/05/25 00:11:22;;;;;;;9.40;3.43;;;14.60;45.40;;;;;;5011862;28;20466;-86
2023/05/25 00:13:49;;;;;;;10.23;3.20;;;14.40;46.50;;;;;;5022515;28;20942;-85
2023/05/25 00:16:16;;;;;;;8.57;3.60;;;14.20;47.60;;;;;;5015841;28;20450;-82
2023/05/25 00:18:43;;;;;;;5.00;3.30;;;14.00;48.20;;;;;;5030817;28;20447;-81
2023/05/25 00:21:10;;;;;;;10.23;3.90;;;14.20;48.70;;;;;;5031497;28;20450;-83
2023/05/25 00:23:38;;;;;;;6.30;3.60;;;14.40;48.50;;;;;;5022989;28;21011;-84
2023/05/25 00:26:05;;;;;;;6.80;3.60;;;14.50;48.20;;;;;;5033010;28;20458;-84
2023/05/25 00:28:32;;;;;;;5.87;2.97;;;14.70;48.10;;;;;;5004284;28;20820;-82
2023/05/25 00:30:59;;;;;;;7.07;3.23;;;14.80;47.90;;;;;;5023380;28;20831;-83
2023/05/25 00:33:26;;;;;;;6.60;3.57;;;14.80;47.50;;;;;;5022728;28;20482;-82
2023/05/25 00:35:53;;;;;;;7.13;2.97;;;14.70;47.90;;;;;;5008755;28;20445;-84
2023/05/25 00:38:20;;;;;;;6.73;3.60;;;14.40;47.60;;;;;;5021964;28;20481;-83
2023/05/25 00:40:54;;;;;;;5.43;3.10;;;14.30;48.30;;;;;;4998057;28;20447;-85
2023/05/25 00:43:21;;;;;;;5.33;3.33;;;14.40;48.50;;;;;;5000703;28;20557;-84
2023/05/25 00:45:48;;;;;;;14.97;4.10;;;14.50;48.30;;;;;;5031061;28;20452;-85
2023/05/25 00:48:17;;;;;;;6.73;4.13;;;14.60;48.40;;;;;;5006290;28;20443;-83
2023/05/25 00:50:44;;;;;;;8.77;4.03;;;14.70;48.10;;;;;;5019082;28;20474;-84
2023/05/25 00:53:13;;;;;;;4.53;3.03;;;14.70;47.20;;;;;;5014484;28;21010;-85
2023/05/25 00:55:49;;;;;;;6.63;3.83;;;14.40;47.20;;;;;;4998951;28;20985;-87
2023/05/25 00:58:20;;;;;;;7.17;3.80;;;14.40;48.70;;;;;;5006930;28;20500;-83
2023/05/25 01:00:50;;;;;;;5.27;3.20;;;14.40;48.20;;;;;;5020292;28;20469;-84
2023/05/25 01:03:21;;;;;;;8.27;3.53;;;14.40;48.60;;;;;;5008091;28;20551;-84
2023/05/25 01:05:53;;;;;;;7.73;3.40;;;14.50;48.00;;;;;;5016575;28;20504;-83
2023/05/25 01:08:24;;;;;;;5.50;3.30;;;14.60;48.10;;;;;;5003236;28;20540;-83
2023/05/25 01:10:52;;;;;;;5.37;3.60;;;14.60;47.80;;;;;;5005091;28;20514;-82
2023/05/25 01:13:21;;;;;;;6.30;3.40;;;14.60;47.90;;;;;;5005171;28;20470;-85
2023/05/25 01:15:49;;;;;;;7.93;4.47;;;14.60;47.70;;;;;;5038856;28;20463;-83
2023/05/25 01:18:17;;;;;;;8.73;3.60;;;14.70;47.90;;;;;;5005911;28;20445;-82
2023/05/25 01:21:00;;;;;;;5.90;3.97;;;14.60;47.70;;;;;;5008280;28;20974;-81
2023/05/25 01:23:34;;;;;;;6.43;3.40;;;14.60;47.80;;;;;;5018397;28;20481;-84
2023/05/25 01:26:12;;;;;;;6.90;3.17;;;14.60;47.90;;;;;;4997707;28;20480;-83
2023/05/25 01:28:45;;;;;;;5.97;3.37;;;14.60;48.00;;;;;;5019849;28;20447;-85
2023/05/25 01:31:14;;;;;;;8.40;3.67;;;14.60;48.30;;;;;;5019544;28;20549;-85
2023/05/25 01:33:43;;;;;;;8.10;3.97;;;14.50;48.50;;;;;;5028253;28;20513;-84
2023/05/25 01:36:12;;;;;;;11.63;3.83;;;14.40;48.50;;;;;;4997222;28;20559;-83
2023/05/25 01:38:39;;;;;;;8.10;4.03;;;14.30;48.50;;;;;;5004284;28;20956;-83
2023/05/25 01:41:06;;;;;;;10.33;3.90;;;14.40;48.50;;;;;;5017195;28;20521;-84
2023/05/25 01:43:33;;;;;;;8.33;3.80;;;14.40;48.20;;;;;;5008014;28;20470;-83
2023/05/25 01:46:10;;;;;;;5.90;3.53;;;14.40;48.10;;;;;;5005992;28;20480;-82
2023/05/25 01:48:45;;;;;;;5.70;4.00;;;14.40;48.10;;;;;;5005821;28;20452;-85
2023/05/25 01:51:20;;;;;;;9.80;3.70;;;14.40;48.00;;;;;;5022675;28;20482;-87
2023/05/25 01:53:53;;;;;;;7.57;3.57;;;14.30;48.20;;;;;;5014755;28;20478;-82
2023/05/25 01:56:23;;;;;;;9.93;3.70;;;14.30;48.30;;;;;;5017283;28;20866;-85
2023/05/25 01:58:51;;;;;;;4.60;3.40;;;14.20;48.20;;;;;;5026947;28;20529;-86
2023/05/25 02:01:19;;;;;;;9.27;3.37;;;14.20;47.90;;;;;;4994681;28;20476;-84
2023/05/25 02:03:48;;;;;;;9.90;3.57;;;14.10;47.90;;;;;;5014971;28;20561;-82
2023/05/25 02:06:17;;;;;;;9.10;3.73;;;14.10;48.10;;;;;;5020835;28;20537;-86
2023/05/25 02:08:44;;;;;;;9.60;3.83;;;14.00;48.20;;;;;;5020563;28;20446;-83
2023/05/25 02:11:13;;;;;;;7.93;3.77;;;14.00;48.50;;;;;;5029965;28;20481;-84
2023/05/25 02:13:40;;;;;;;6.67;3.80;;;14.00;48.50;;;;;;5019312;28;20474;-82
2023/05/25 02:16:08;;;;;;;6.63;3.47;;;14.10;48.50;;;;;;4999427;28;20450;-83
2023/05/25 02:18:35;;;;;;;7.20;3.50;;;14.10;48.30;;;;;;5022511;28;20520;-80
2023/05/25 02:21:03;;;;;;;9.37;3.63;;;14.10;48.40;;;;;;5007285;28;20486;-83
2023/05/25 02:23:31;;;;;;;4.83;3.90;;;14.10;48.40;;;;;;5015727;28;20486;-85
2023/05/25 02:25:58;;;;;;;4.33;3.00;;;14.10;48.40;;;;;;5029007;28;20456;-84
2023/05/25 02:28:25;;;;;;;4.77;3.00;;;14.10;48.40;;;;;;5034517;28;20482;-83
2023/05/25 02:30:52;;;;;;;6.73;4.03;;;14.10;48.40;;;;;;5016165;28;20465;-85
2023/05/25 02:33:19;;;;;;;4.70;3.40;;;14.10;48.60;;;;;;5021216;28;20496;-82
2023/05/25 02:35:46;;;;;;;7.40;4.00;;;14.10;48.60;;;;;;5022428;28;20461;-84
2023/05/25 02:38:13;;;;;;;5.27;3.40;;;14.10;48.90;;;;;;5017800;28;20454;-83
2023/05/25 02:40:42;;;;;;;5.60;3.50;;;14.10;48.10;;;;;;5008923;28;20456;-82
2023/05/25 02:43:09;;;;;;;7.93;4.70;;;14.10;48.00;;;;;;5019745;28;20474;-83
2023/05/25 02:45:36;;;;;;;5.50;3.40;;;14.10;48.30;;;;;;5035899;28;20454;-85
2023/05/25 02:48:03;;;;;;;7.93;3.50;;;13.90;48.30;;;;;;5034406;28;20538;-83
2023/05/25 02:50:30;;;;;;;6.33;3.00;;;13.90;48.40;;;;;;5015477;28;20450;-83
2023/05/25 02:53:02;;;;;;;4.13;3.70;;;13.80;48.50;;;;;;5019994;28;20587;-82
2023/05/25 02:55:29;;;;;;;7.13;3.83;;;13.80;48.30;;;;;;5022911;28;20512;-85
2023/05/25 02:57:58;;;;;;;8.23;3.67;;;13.80;48.60;;;;;;5021299;28;21016;-82
2023/05/25 03:00:47;;;;;;;5.40;3.60;;;13.80;48.60;;;;;;5009289;28;20820;-85
2023/05/25 03:03:14;;;;;;;5.80;3.23;;;13.70;48.50;;;;;;5001472;28;20527;-83
2023/05/25 03:05:41;;;;;;;5.70;3.87;;;13.70;48.40;;;;;;5007502;28;20437;-83
2023/05/25 03:08:08;;;;;;;4.97;3.33;;;13.60;48.60;;;;;;5037253;28;20442;-82
2023/05/25 03:10:35;;;;;;;8.73;3.90;;;13.60;48.70;;;;;;5018407;28;20443;-85
2023/05/25 03:13:04;;;;;;;9.60;4.20;;;13.60;48.90;;;;;;5025180;28;20570;-83
2023/05/25 03:15:31;;;;;;;13.27;4.17;;;13.60;49.10;;;;;;5002460;28;20515;-82
2023/05/25 03:18:00;;;;;;;4.50;3.77;;;13.50;49.10;;;;;;5016794;28;20457;-85
2023/05/25 03:20:28;;;;;;;8.73;4.10;;;13.50;49.00;;;;;;5005234;28;20473;-83
2023/05/25 03:22:55;;;;;;;8.83;4.03;;;13.50;48.60;;;;;;5032238;28;21241;-86
2023/05/25 03:25:22;;;;;;;8.43;3.47;;;13.60;48.50;;;;;;5015731;28;20456;-85
2023/05/25 03:27:52;;;;;;;3.93;3.40;;;13.60;48.50;;;;;;5017258;28;20464;-85
2023/05/25 03:30:21;;;;;;;7.30;3.70;;;13.60;48.70;;;;;;4999323;28;20461;-86
2023/05/25 03:32:48;;;;;;;5.27;3.53;;;13.50;48.80;;;;;;5008876;28;20577;-84
2023/05/25 03:35:15;;;;;;;10.33;4.67;;;13.40;48.80;;;;;;5036659;28;20512;-84
2023/05/25 03:37:42;;;;;;;6.17;3.50;;;13.40;49.20;;;;;;5030948;28;20450;-84
2023/05/25 03:40:11;;;;;;;4.80;3.73;;;13.30;49.20;;;;;;5002566;28;20835;-84
2023/05/25 03:42:38;;;;;;;5.17;4.00;;;13.30;49.60;;;;;;5006558;28;20469;-87
2023/05/25 03:45:07;;;;;;;6.43;3.60;;;13.30;49.80;;;;;;5025384;28;20486;-84
2023/05/25 03:47:36;;;;;;;7.60;3.40;;;13.30;49.40;;;;;;5020418;28;21188;-81
2023/05/25 03:50:04;;;;;;;9.87;4.53;;;13.30;50.10;;;;;;5030797;28;20442;-85
2023/05/25 03:52:31;;;;;;;6.30;3.70;;;13.30;50.30;;;;;;5008135;28;20493;-85
2023/05/25 03:55:00;;;;;;;7.43;3.97;;;13.30;50.30;;;;;;5015321;28;20442;-87
2023/05/25 03:57:27;;;;;;;9.50;3.90;;;13.30;50.20;;;;;;5006222;28;20504;-85
2023/05/25 03:59:54;;;;;;;15.97;4.43;;;13.30;49.60;;;;;;5018666;28;20469;-85
2023/05/25 04:02:21;;;;;;;5.27;3.30;;;13.30;50.40;;;;;;4993728;28;20534;-84
2023/05/25 04:04:50;;;;;;;5.13;3.73;;;13.30;50.30;;;;;;5037524;28;20461;-84
2023/05/25 04:07:18;;;;;;;6.03;3.80;;;13.30;50.40;;;;;;5036544;28;20978;-84
2023/05/25 04:09:45;;;;;;;8.73;3.60;;;13.40;50.50;;;;;;5019266;28;21263;-87
2023/05/25 04:12:12;;;;;;;6.03;3.80;;;13.40;50.60;;;;;;5027953;28;20469;-85
2023/05/25 04:14:41;;;;;;;6.60;3.73;;;13.50;50.60;;;;;;5027749;28;20478;-85
2023/05/25 04:17:08;;;;;;;9.53;4.80;;;13.50;50.40;;;;;;5019817;28;20461;-85
2023/05/25 04:19:35;;;;;;;6.43;4.33;;;13.60;50.20;;;;;;5025897;28;20566;-84
2023/05/25 04:22:04;;;;;;;9.10;4.30;;;13.50;50.20;;;;;;5016864;28;20458;-87
2023/05/25 04:24:31;;;;;;;13.10;5.00;;;13.40;51.00;;;;;;5005138;28;20489;-83
2023/05/25 04:26:58;;;;;;;7.73;5.10;;;13.30;51.20;;;;;;5009226;28;20462;-85
2023/05/25 04:29:27;;;;;;;7.20;4.43;;;13.40;50.90;;;;;;5011988;28;20493;-84
2023/05/25 04:32:09;;;;;;;7.63;4.83;;;13.50;50.40;;;;;;5028434;28;20478;-87
2023/05/25 04:34:49;;;;;;;10.10;5.90;;;13.50;50.70;;;;;;5031038;28;21035;-81
2023/05/25 04:37:25;;;;;;;9.83;5.30;;;13.50;50.50;;;;;;5012501;28;20462;-84
2023/05/25 04:39:53;;;;;;;10.27;5.37;;;13.60;50.50;;;;;;4994691;28;20902;-84
2023/05/25 04:42:22;;;;;;;8.53;4.90;;;13.50;51.00;;;;;;5001794;28;20445;-85
2023/05/25 04:44:52;;;;;;;14.00;5.13;;;13.60;51.30;;;;;;5026120;28;20450;-85
2023/05/25 04:47:19;;;;;;;6.27;4.40;;;13.70;51.30;;;;;;5019906;28;20484;-86
2023/05/25 04:49:46;;;;;;;12.53;4.70;;;13.70;51.20;;;;;;5013837;28;20551;-84
2023/05/25 04:52:13;;;;;;;7.20;3.57;;;13.70;51.60;;;;;;5009513;28;20469;-83
2023/05/25 04:54:42;;;;;;;7.13;4.00;;;13.60;52.10;;;;;;5010714;28;21080;-84
2023/05/25 04:57:09;;;;;;;9.00;3.87;;;13.60;52.30;;;;;;5010302;28;20453;-84
2023/05/25 04:59:36;;;;;;;9.80;4.53;;;13.70;52.00;;;;;;5008195;28;20454;-83
2023/05/25 05:02:04;;;;;;;9.20;4.30;;;13.70;51.70;;;;;;5000207;28;21075;-86
2023/05/25 05:04:31;;;;;;;6.97;4.43;;;13.70;52.20;;;;;;5026589;28;20484;-85
2023/05/25 05:06:58;;;;;;;7.30;4.83;;;13.80;52.10;;;;;;4998642;28;20449;-84
2023/05/25 05:09:27;;;;;;;13.37;4.53;;;13.80;52.10;;;;;;4993729;28;20449;-83
2023/05/25 05:11:58;;;;;;;9.50;4.17;;;13.90;51.60;;;;;;5027396;28;20676;-84
2023/05/25 05:14:25;;;;;;;10.53;4.57;;;14.00;52.20;;;;;;5017096;28;21003;-84
2023/05/25 05:16:53;;;;;;;9.07;4.53;;;14.00;51.90;;;;;;5014792;28;20626;-85
2023/05/25 05:19:21;;;;;;;9.83;4.23;;;13.90;51.40;;;;;;5011780;28;20553;-84
2023/05/25 05:21:48;;;;;;;9.00;4.17;;;13.90;52.10;;;;;;4989219;28;20529;-84
2023/05/25 05:24:17;;;;;;;7.70;4.90;;;14.00;51.80;;;;;;4998855;28;20482;-83
2023/05/25 05:26:44;;;;;;;6.33;4.27;;;14.00;51.90;;;;;;4991743;28;20871;-84
2023/05/25 05:29:15;;;;;;;8.30;5.20;;;14.10;52.10;;;;;;4995225;28;20443;-86
2023/05/25 05:31:42;;;;;;;4.60;3.73;;;14.20;51.80;;;;;;5002133;28;20445;-85
2023/05/25 05:34:09;;;;;;;10.00;4.27;;;14.20;51.70;;;;;;4993635;28;20481;-85
2023/05/25 05:36:37;;;;;;;7.60;4.40;;;14.30;52.20;;;;;;5018257;28;20539;-85
2023/05/25 05:39:04;;;;;;;14.23;4.57;;;14.30;52.40;;;;;;5026569;28;20453;-84
2023/05/25 05:41:30;;;;;;;8.23;4.43;;;14.40;52.10;;;;;;5004556;28;20437;-86
2023/05/25 05:44:00;;;;;;;21.43;5.23;;;14.40;52.10;;;;;;5013596;28;21309;-86
2023/05/25 05:46:28;;;;;;;6.60;4.00;;;14.50;52.40;;;;;;5014412;28;20514;-84
2023/05/25 05:48:55;;;;;;;9.67;4.20;;;14.50;52.60;;;;;;5028471;28;20460;-86
2023/05/25 05:51:23;;;;;;;18.00;4.03;;;14.30;52.20;;;;;;5003516;28;20532;-87
2023/05/25 05:53:50;;;;;;;8.67;5.00;;;14.30;52.40;;;;;;5015639;28;20493;-84
2023/05/25 05:56:17;;;;;;;19.47;4.30;;;14.50;52.60;;;;;;5025940;28;20454;-86
2023/05/25 05:58:48;;;;;;;7.77;4.40;;;14.90;52.50;;;;;;5009280;28;20455;-84
2023/05/25 06:01:15;;;;;;;7.27;4.47;;;15.00;52.50;;;;;;5025522;28;21169;-86
2023/05/25 06:03:46;;;;;;;8.03;4.60;;;15.30;52.30;;;;;;5019625;28;20548;-85
2023/05/25 06:06:13;;;;;;;9.10;4.43;;;15.50;52.40;;;;;;5019684;28;20462;-85
2023/05/25 06:08:40;;;;;;;5.67;3.67;;;15.60;51.10;;;;;;5013076;28;20580;-84
2023/05/25 06:11:07;;;;;;;8.03;4.20;;;15.70;51.30;;;;;;5031537;28;20507;-87
2023/05/25 06:13:36;;;;;;;10.83;4.50;;;15.90;51.50;;;;;;5018866;28;20485;-85
2023/05/25 06:16:03;;;;;;;10.47;4.00;;;16.10;51.80;;;;;;5012475;28;21308;-85
2023/05/25 06:18:30;;;;;;;6.03;4.23;;;16.40;51.50;;;;;;5000549;28;20442;-85
2023/05/25 06:21:01;;;;;;;7.83;4.07;;;16.60;50.90;;;;;;5030056;28;20445;-86
2023/05/25 06:23:28;;;;;;;9.67;3.97;;;16.80;50.90;;;;;;5047821;28;20565;-86
2023/05/25 06:25:55;;;;;;;10.43;4.03;;;17.00;51.00;;;;;;5014171;28;20449;-86
2023/05/25 06:28:22;;;;;;;11.60;4.10;;;16.70;49.70;;;;;;5024233;28;20461;-87
2023/05/25 06:30:50;;;;;;;12.60;3.70;;;16.50;49.90;;;;;;5017435;28;20462;-86
2023/05/25 06:33:17;;;;;;;4.93;3.40;;;16.70;49.40;;;;;;5013207;28;20481;-87
2023/05/25 06:35:44;;;;;;;9.37;4.53;;;16.60;48.80;;;;;;5013884;28;20530;-86
2023/05/25 06:38:12;;;;;;;6.13;3.47;;;16.60;49.30;;;;;;5004898;28;20457;-87
2023/05/25 06:40:39;;;;;;;5.40;3.13;;;16.60;47.90;;;;;;5031955;28;20537;-86
2023/05/25 06:43:06;;;;;;;5.37;3.70;;;16.70;48.20;;;;;;5018939;28;20468;-86
2023/05/25 06:46:09;;;;;;;5.00;3.20;;;16.90;48.30;;;;;;4965769;28;20462;-85
2023/05/25 06:48:39;;;;;;;6.13;4.47;;;17.10;48.30;;;;;;5008233;28;20552;-86
2023/05/25 06:51:06;;;;;;;8.70;3.93;;;17.30;47.90;;;;;;4998442;28;20531;-85
2023/05/25 06:53:34;;;;;;;4.77;3.03;;;17.40;48.00;;;;;;5034785;28;20481;-86
2023/05/25 06:56:01;;;;;;;7.13;3.70;;;17.50;46.90;;;;;;5012011;28;20451;-86
2023/05/25 06:58:28;;;;;;;5.67;3.00;;;17.60;46.60;;;;;;5032437;28;20446;-85
2023/05/25 07:00:55;;;;;;;6.53;3.37;;;17.60;46.60;;;;;;5012070;28;20464;-87
2023/05/25 07:03:22;;;;;;;9.40;3.63;;;17.50;46.20;;;;;;5000883;28;20465;-89
2023/05/25 07:05:49;;;;;;;6.10;3.50;;;17.50;47.50;;;;;;5029876;28;20457;-85
2023/05/25 07:08:16;;;;;;;5.73;2.97;;;17.70;46.80;;;;;;5033282;28;20497;-86
2023/05/25 07:10:44;;;;;;;10.47;3.43;;;17.90;47.50;;;;;;5009094;28;20451;-85
2023/05/25 07:13:11;;;;;;;3.77;3.33;;;18.10;46.20;;;;;;5028313;28;20531;-86
2023/05/25 07:15:38;;;;;;;8.07;3.33;;;17.80;46.50;;;;;;5032036;28;20454;-86
2023/05/25 07:18:05;;;;;;;10.70;3.50;;;17.80;46.80;;;;;;5044018;28;20456;-86
2023/05/25 07:20:33;;;;;;;4.83;3.20;;;18.00;46.40;;;;;;5022795;28;20446;-87
2023/05/25 07:23:00;;;;;;;6.23;3.50;;;18.30;45.80;;;;;;5002340;28;20458;-86
2023/05/25 07:25:27;;;;;;;8.30;3.17;;;18.50;44.90;;;;;;5028559;28;21295;-84
2023/05/25 07:27:55;;;;;;;4.23;2.97;;;18.40;45.20;;;;;;5029107;28;20548;-85
2023/05/25 07:30:22;;;;;;;9.40;3.77;;;18.70;45.30;;;;;;5000581;28;20461;-84
2023/05/25 07:32:49;;;;;;;11.90;4.20;;;18.70;45.00;;;;;;5012247;28;20470;-84
2023/05/25 07:35:16;;;;;;;8.43;3.17;;;18.90;45.00;;;;;;5016330;28;20454;-86
2023/05/25 07:37:42;;;;;;;11.07;3.60;;;18.90;44.10;;;;;;5016983;28;20808;-84
2023/05/25 07:40:10;;;;;;;9.27;3.43;;;18.80;44.60;;;;;;4998202;28;20455;-87
2023/05/25 07:42:37;;;;;;;13.90;4.07;;;18.80;44.50;;;;;;5028459;28;20476;-83
2023/05/25 07:45:07;;;;;;;5.63;3.10;;;18.70;45.10;;;;;;5015821;28;20454;-83
2023/05/25 07:47:33;;;;;;;8.70;3.90;;;18.80;44.70;;;;;;5016023;28;20447;-85
2023/05/25 07:50:00;;;;;;;4.57;3.47;;;18.70;44.30;;;;;;5022581;28;20457;-84
2023/05/25 07:52:27;;;;;;;4.03;3.30;;;18.80;45.50;;;;;;5018841;28;20485;-84
2023/05/25 07:54:54;;;;;;;6.13;3.33;;;19.00;44.20;;;;;;5023862;28;20469;-84
2023/05/25 07:57:21;;;;;;;9.43;3.83;;;19.20;43.90;;;;;;5029065;28;21029;-87
2023/05/25 07:59:48;;;;;;;7.50;3.57;;;19.30;42.60;;;;;;5005482;28;20448;-84
2023/05/25 08:02:16;;;;;;;8.73;3.93;;;19.40;43.60;;;;;;5010312;28;20458;-86
2023/05/25 08:04:43;;;;;;;5.63;3.03;;;19.50;43.30;;;;;;5011471;28;20462;-85
2023/05/25 08:07:10;;;;;;;5.57;3.27;;;19.60;41.80;;;;;;5016366;28;20453;-85
2023/05/25 08:09:37;;;;;;;4.00;3.07;;;19.60;41.20;;;;;;5018237;28;20450;-85
2023/05/25 08:12:05;;;;;;;11.13;3.27;;;19.70;41.60;;;;;;5011488;28;20473;-86
2023/05/25 08:14:32;;;;;;;7.10;3.87;;;19.80;40.90;;;;;;5018917;28;20519;-85
2023/05/25 08:16:58;;;;;;;8.67;3.87;;;20.00;41.40;;;;;;5008402;28;20454;-85
2023/05/25 08:19:27;;;;;;;15.27;2.83;;;20.10;40.50;;;;;;5008847;28;20831;-85
2023/05/25 08:21:54;;;;;;;6.60;3.60;;;20.10;40.50;;;;;;5015928;28;20469;-85
2023/05/25 08:24:21;;;;;;;6.70;3.60;;;20.30;41.60;;;;;;5006646;28;20577;-86
2023/05/25 08:26:48;;;;;;;7.33;3.73;;;20.30;41.10;;;;;;5024777;28;21128;-86
2023/05/25 08:29:15;;;;;;;6.23;3.30;;;20.40;40.20;;;;;;4995218;28;20540;-83
2023/05/25 08:31:43;;;;;;;7.10;3.40;;;20.30;40.20;;;;;;5027587;28;20447;-85
2023/05/25 08:34:11;;;;;;;12.93;3.70;;;20.30;39.90;;;;;;5025562;28;20488;-85
2023/05/25 08:36:39;;;;;;;5.53;3.93;;;20.50;40.50;;;;;;5019337;28;20455;-83
2023/05/25 08:39:07;;;;;;;6.93;3.20;;;20.80;42.50;;;;;;5004666;28;20453;-82
2023/05/25 08:41:36;;;;;;;6.83;3.30;;;21.00;39.60;;;;;;5009432;28;20550;-85
2023/05/25 08:44:06;;;;;;;9.03;4.10;;;21.10;39.80;;;;;;5007468;28;20520;-85
2023/05/25 08:46:33;;;;;;;9.93;3.77;;;21.20;38.70;;;;;;4999290;28;20450;-84
2023/05/25 08:49:08;;;;;;;5.57;2.90;;;21.20;38.80;;;;;;5020105;28;20487;-85
2023/05/25 08:51:37;;;;;;;12.20;3.30;;;21.20;40.40;;;;;;5024664;28;20465;-84
2023/05/25 08:54:10;;;;;;;6.43;3.70;;;21.30;39.50;;;;;;4997569;28;20462;-84
2023/05/25 08:56:44;;;;;;;8.83;3.53;;;21.40;39.10;;;;;;5022237;28;20583;-85
2023/05/25 08:59:19;;;;;;;4.57;3.20;;;21.30;38.80;;;;;;5022203;28;20468;-85
2023/05/25 09:01:51;;;;;;;6.73;3.53;;;21.30;39.60;;;;;;4999028;28;20444;-86
2023/05/25 09:04:18;;;;;;;6.60;4.10;;;21.60;38.50;;;;;;5029100;28;20485;-86
2023/05/25 09:06:47;;;;;;;6.97;3.30;;;21.70;36.90;;;;;;5007328;28;21066;-84
2023/05/25 09:09:15;;;;;;;4.53;3.30;;;21.90;38.10;;;;;;4997002;28;20545;-85
2023/05/25 09:11:44;;;;;;;8.83;3.70;;;22.00;37.90;;;;;;5023678;28;20461;-86
2023/05/25 09:14:11;;;;;;;5.80;3.53;;;22.00;36.80;;;;;;5025086;28;20470;-85
2023/05/25 09:16:38;;;;;;;7.57;3.63;;;22.10;37.30;;;;;;5007543;28;20455;-85
2023/05/25 09:19:05;;;;;;;6.00;3.27;;;22.10;37.40;;;;;;5020411;28;20698;-86
2023/05/25 09:21:32;;;;;;;4.87;3.20;;;22.20;37.10;;;;;;5025655;28;20457;-84
2023/05/25 09:24:00;;;;;;;8.10;3.73;;;22.20;36.90;;;;;;5010964;28;20478;-85
2023/05/25 09:26:28;;;;;;;4.23;3.53;;;22.20;37.00;;;;;;5028832;28;20449;-85
2023/05/25 09:28:55;;;;;;;11.67;3.80;;;22.40;37.70;;;;;;5010808;28;20453;-85
2023/05/25 09:31:24;;;;;;;5.23;3.63;;;22.60;36.30;;;;;;5012624;28;20465;-85
2023/05/25 09:33:54;;;;;;;5.43;3.50;;;22.80;36.70;;;;;;5025141;28;20540;-86
2023/05/25 09:36:21;;;;;;;7.60;4.17;;;22.60;36.50;;;;;;5009244;28;21081;-84
2023/05/25 09:38:49;;;;;;;7.03;3.33;;;22.70;36.00;;;;;;5010460;28;20463;-84
2023/05/25 09:41:16;;;;;;;4.53;4.13;;;22.90;36.80;;;;;;5010156;28;20451;-85
2023/05/25 09:43:44;;;;;;;8.20;3.27;;;23.00;35.60;;;;;;5007867;28;20889;-84
2023/05/25 09:46:11;;;;;;;5.07;3.33;;;23.30;36.30;;;;;;5024261;28;21666;-84
2023/05/25 09:48:38;;;;;;;4.93;3.20;;;23.90;37.60;;;;;;5012758;28;20517;-83
2023/05/25 09:51:07;;;;;;;6.53;3.70;;;24.20;35.30;;;;;;5018366;28;20468;-85
2023/05/25 09:53:34;;;;;;;5.47;3.50;;;24.40;35.00;;;;;;5028753;28;20854;-86
2023/05/25 09:56:02;;;;;;;7.93;3.63;;;24.20;33.30;;;;;;5025506;28;20454;-85
2023/05/25 09:58:29;;;;;;;5.17;3.53;;;24.20;33.10;;;;;;5033385;28;20462;-86
2023/05/25 10:00:58;;;;;;;4.20;3.27;;;24.10;33.20;;;;;;5017982;28;20450;-86
2023/05/25 10:03:25;;;;;;;14.97;4.03;;;23.80;32.90;;;;;;5015581;28;20474;-85
2023/05/25 10:05:54;;;;;;;7.50;3.43;;;23.70;34.50;;;;;;5023715;28;20457;-86
2023/05/25 10:08:22;;;;;;;6.73;3.70;;;23.70;34.10;;;;;;5016808;28;20458;-84
2023/05/25 10:10:50;;;;;;;4.80;2.93;;;23.90;33.30;;;;;;5013436;28;20461;-85
2023/05/25 10:13:21;;;;;;;5.60;3.63;;;24.50;35.00;;;;;;5016173;28;20532;-85
2023/05/25 10:15:52;;;;;;;5.73;3.10;;;24.70;34.20;;;;;;5033325;28;20442;-85
2023/05/25 10:18:24;;;;;;;4.33;3.70;;;24.80;32.80;;;;;;5012996;28;21615;-85
2023/05/25 10:20:57;;;;;;;7.63;3.83;;;25.00;30.70;;;;;;5009462;28;20435;-85
2023/05/25 10:23:25;;;;;;;6.40;2.90;;;25.00;30.40;;;;;;5008958;28;20478;-84
2023/05/25 10:25:59;;;;;;;7.40;3.40;;;24.80;30.00;;;;;;5009779;28;20453;-86
2023/05/25 10:28:29;;;;;;;7.47;3.57;;;25.20;31.40;;;;;;5017161;28;20452;-84
2023/05/25 10:30:58;;;;;;;6.50;3.47;;;25.00;31.40;;;;;;5020454;28;20520;-85
2023/05/25 10:33:26;;;;;;;5.03;3.00;;;24.80;31.10;;;;;;5023455;28;20494;-84
2023/05/25 10:35:55;;;;;;;5.23;3.03;;;25.20;31.40;;;;;;5007537;28;20464;-83
2023/05/25 10:38:22;;;;;;;4.00;3.20;;;25.40;30.70;;;;;;5005587;28;20450;-84
2023/05/25 10:40:50;;;;;;;4.33;3.40;;;25.40;30.50;;;;;;5025247;28;20441;-85
2023/05/25 10:43:19;;;;;;;10.10;3.60;;;25.70;30.10;;;;;;5024182;28;20567;-86
2023/05/25 10:45:46;;;;;;;4.23;3.00;;;25.70;31.00;;;;;;5016419;28;20469;-85
2023/05/25 10:48:14;;;;;;;9.50;4.87;;;25.80;30.10;;;;;;5011889;28;21979;-85
2023/05/25 10:50:42;;;;;;;4.00;3.10;;;25.90;31.40;;;;;;5010762;28;20452;-85
2023/05/25 10:53:13;;;;;;;8.23;3.33;;;25.60;31.00;;;;;;5034101;28;20492;-85
2023/05/25 10:55:48;;;;;;;6.47;3.40;;;25.60;30.50;;;;;;4995316;28;20474;-85
2023/05/25 10:58:16;;;;;;;8.87;3.60;;;25.60;31.20;;;;;;5014612;28;20842;-85
2023/05/25 11:00:57;;;;;;;6.50;3.43;;;25.40;30.70;;;;;;5029123;28;20446;-85
2023/05/25 11:03:50;;;;;;;6.30;3.50;;;25.70;32.00;;;;;;5029383;28;20922;-84
2023/05/25 11:06:20;;;;;;;4.87;3.17;;;25.80;30.20;;;;;;5028204;28;20536;-85
2023/05/25 11:08:53;;;;;;;6.73;3.53;;;25.70;30.60;;;;;;5010308;28;20454;-86
2023/05/25 11:11:21;;;;;;;6.60;3.90;;;25.90;30.70;;;;;;5006020;28;20465;-86
2023/05/25 11:13:49;;;;;;;5.73;4.03;;;25.90;30.00;;;;;;5019275;28;20502;-86
2023/05/25 11:16:34;;;;;;;9.03;3.60;;;25.90;30.40;;;;;;5018294;28;20519;-85
2023/05/25 11:19:02;;;;;;;5.93;3.97;;;25.90;30.80;;;;;;5019275;28;20761;-86
2023/05/25 11:21:44;;;;;;;5.10;3.40;;;26.00;30.50;;;;;;5032195;28;20453;-86
2023/05/25 11:24:13;;;;;;;4.00;3.10;;;26.20;30.60;;;;;;5003937;28;20485;-85
2023/05/25 11:26:54;;;;;;;6.37;3.00;;;26.30;29.70;;;;;;5002367;28;20446;-86
2023/05/25 11:29:21;;;;;;;6.27;3.70;;;26.30;30.80;;;;;;5018248;28;20893;-85
2023/05/25 11:31:53;;;;;;;4.23;3.17;;;26.50;29.70;;;;;;5013446;28;20464;-86
2023/05/25 11:34:23;;;;;;;3.20;2.50;;;26.40;29.30;;;;;;4998570;28;20494;-85
2023/05/25 11:36:56;;;;;;;5.90;3.53;;;26.60;29.00;;;;;;5010476;28;20446;-85
2023/05/25 11:39:23;;;;;;;6.13;3.23;;;26.90;30.00;;;;;;5014171;28;20446;-87
2023/05/25 11:41:55;;;;;;;8.27;3.17;;;27.20;29.10;;;;;;5013943;28;20438;-86
2023/05/25 11:44:28;;;;;;;4.47;3.80;;;27.00;29.10;;;;;;5028585;28;20458;-86
2023/05/25 11:46:56;;;;;;;3.73;2.90;;;27.10;29.50;;;;;;5011247;28;20496;-84
2023/05/25 11:49:24;;;;;;;7.23;3.23;;;27.00;27.90;;;;;;5005833;28;20446;-86
2023/05/25 11:51:51;;;;;;;5.60;3.50;;;26.90;29.20;;;;;;5016990;28;20461;-86
2023/05/25 11:54:24;;;;;;;5.13;3.67;;;26.80;28.80;;;;;;5015623;28;20472;-86
2023/05/25 11:56:52;;;;;;;7.10;3.90;;;26.80;29.40;;;;;;5020981;28;20457;-85
2023/05/25 11:59:19;;;;;;;9.13;3.30;;;26.50;29.90;;;;;;5010713;28;20446;-86
2023/05/25 12:01:56;;;;;;;5.13;3.40;;;26.70;30.20;;;;;;5013137;28;20457;-84
2023/05/25 12:04:23;;;;;;;9.50;4.17;;;26.60;29.50;;;;;;5023146;28;20472;-86
2023/05/25 12:06:50;;;;;;;5.30;3.30;;;26.60;29.70;;;;;;5015719;28;20440;-86
2023/05/25 12:09:20;;;;;;;5.97;3.30;;;26.90;29.80;;;;;;5029496;28;20557;-85
2023/05/25 12:11:49;;;;;;;5.87;4.00;;;27.20;30.00;;;;;;4999024;28;20433;-84
2023/05/25 12:14:16;;;;;;;3.63;3.13;;;27.40;30.50;;;;;;5015183;28;20481;-85
2023/05/25 12:16:44;;;;;;;5.73;3.53;;;27.40;29.80;;;;;;5003299;28;21011;-85
2023/05/25 12:19:11;;;;;;;6.60;3.13;;;27.50;29.90;;;;;;5005476;28;20542;-85
2023/05/25 12:21:40;;;;;;;10.43;3.47;;;27.70;29.00;;;;;;5030115;28;20460;-86
2023/05/25 12:24:07;;;;;;;8.97;4.33;;;27.70;28.20;;;;;;5018734;28;20488;-86
2023/05/25 12:26:35;;;;;;;11.63;3.80;;;27.50;28.10;;;;;;5031776;28;20464;-86
2023/05/25 12:29:04;;;;;;;12.07;3.83;;;27.50;29.20;;;;;;5024354;28;20460;-86
2023/05/25 12:31:33;;;;;;;4.13;3.33;;;27.60;28.90;;;;;;5003466;28;20509;-86
2023/05/25 12:34:08;;;;;;;6.93;3.43;;;27.40;28.70;;;;;;5033053;28;20473;-86
2023/05/25 12:36:40;;;;;;;8.17;3.83;;;27.20;28.80;;;;;;5008588;28;20449;-85
2023/05/25 12:39:08;;;;;;;3.70;3.17;;;27.30;29.10;;;;;;5024118;28;20454;-84
2023/05/25 12:41:46;;;;;;;9.67;4.43;;;27.40;29.30;;;;;;5028049;28;20462;-85
2023/05/25 12:44:19;;;;;;;7.13;3.70;;;27.90;29.10;;;;;;4994397;28;20564;-85
2023/05/25 12:46:47;;;;;;;6.87;4.20;;;28.10;28.30;;;;;;5027213;28;20442;-86
2023/05/25 12:49:29;;;;;;;3.70;3.37;;;28.00;28.70;;;;;;5019895;28;20450;-84
2023/05/25 12:51:56;;;;;;;5.57;3.53;;;27.90;28.70;;;;;;5006597;28;20433;-87
2023/05/25 12:54:39;;;;;;;5.17;3.67;;;28.20;28.40;;;;;;5010746;28;20466;-87